Time;durP1;ratioP1;P1;durP2;ratioP2;P2;SDS_P1;SDS_P2;PMS_P1;PMS_P2;Temp;Humidity;BMP_temperature;BMP_pressure;BME280_temperature;BME280_humidity;BME280_pressure;Samples;Min_cycle;Max_cycle;Signal;HPM_P1;HPM_P2
2021/05/04 00:00:30;;;;;;;2.97;2.70;;;8.10;45.00;;;;;;6074425;23;20146;-92
2021/05/04 00:02:56;;;;;;;3.50;2.43;;;8.30;44.60;;;;;;6073895;23;20145;-92
2021/05/04 00:05:22;;;;;;;3.88;2.90;;;8.30;44.30;;;;;;6073908;23;20149;-91
2021/05/04 00:07:48;;;;;;;3.37;3.10;;;8.10;44.00;;;;;;6074743;23;20197;-92
2021/05/04 00:10:13;;;;;;;2.90;2.63;;;7.90;43.80;;;;;;6074377;23;20153;-90
2021/05/04 00:12:39;;;;;;;2.87;2.40;;;7.70;43.40;;;;;;6073494;23;20156;-91
2021/05/04 00:15:07;;;;;;;2.40;2.20;;;8.50;43.80;;;;;;6074046;23;20244;-91
2021/05/04 00:17:33;;;;;;;2.40;2.17;;;8.10;44.10;;;;;;6073588;23;20160;-91
2021/05/04 00:19:59;;;;;;;3.20;3.00;;;8.10;43.90;;;;;;6073778;23;20180;-91
2021/05/04 00:22:24;;;;;;;2.97;2.73;;;8.00;44.10;;;;;;6095462;23;20466;-91
2021/05/04 00:24:52;;;;;;;3.10;2.80;;;7.40;44.30;;;;;;6128695;23;20152;-91
2021/05/04 00:27:18;;;;;;;3.00;2.70;;;8.30;44.70;;;;;;6102529;23;20145;-91
2021/05/04 00:29:44;;;;;;;3.57;3.20;;;8.20;44.50;;;;;;6102865;23;20164;-91
2021/05/04 00:32:09;;;;;;;3.60;3.30;;;8.30;44.90;;;;;;6103219;23;20572;-91
2021/05/04 00:34:35;;;;;;;2.43;2.23;;;8.10;45.70;;;;;;6103211;23;20725;-91
2021/05/04 00:37:01;;;;;;;6.20;5.13;;;8.10;45.60;;;;;;6102526;23;20228;-91
2021/05/04 00:39:37;;;;;;;5.40;4.53;;;7.80;46.10;;;;;;6102174;23;20176;-91
2021/05/04 00:42:04;;;;;;;6.93;4.22;;;7.60;46.20;;;;;;6102311;23;20156;-90
2021/05/04 00:44:30;;;;;;;3.70;3.35;;;8.10;47.00;;;;;;6103168;23;20144;-90
2021/05/04 00:46:56;;;;;;;4.18;3.47;;;7.70;46.30;;;;;;6102691;23;20141;-90
2021/05/04 00:49:22;;;;;;;3.47;3.20;;;7.50;46.40;;;;;;6103516;23;20163;-90
2021/05/04 00:51:50;;;;;;;3.00;2.60;;;7.50;46.60;;;;;;6102182;23;20420;-91
2021/05/04 00:54:18;;;;;;;3.42;3.13;;;6.90;46.80;;;;;;6102689;23;20164;-91
2021/05/04 00:56:44;;;;;;;3.30;3.00;;;7.40;46.10;;;;;;6102275;23;20145;-91
2021/05/04 00:59:11;;;;;;;3.60;3.08;;;7.70;46.00;;;;;;6102343;23;20180;-91
2021/05/04 01:01:37;;;;;;;3.22;2.95;;;7.80;45.60;;;;;;6128137;23;20143;-91
2021/05/04 01:04:06;;;;;;;2.42;2.22;;;7.70;45.10;;;;;;6103526;23;20153;-91
2021/05/04 01:06:32;;;;;;;3.80;3.15;;;7.80;45.00;;;;;;6102848;23;20151;-91
2021/05/04 01:08:59;;;;;;;4.07;3.67;;;7.40;44.30;;;;;;6102893;23;20148;-91
2021/05/04 01:11:24;;;;;;;3.42;3.20;;;7.50;44.50;;;;;;6102314;23;20483;-91
2021/05/04 01:13:56;;;;;;;3.77;3.47;;;7.70;44.70;;;;;;6102689;23;20176;-90
2021/05/04 01:16:21;;;;;;;3.53;3.33;;;7.90;45.40;;;;;;6102830;23;20151;-90
2021/05/04 01:18:47;;;;;;;3.47;3.17;;;7.80;45.80;;;;;;6102700;23;20184;-91
2021/05/04 01:21:13;;;;;;;3.80;3.50;;;7.40;45.70;;;;;;6102796;23;20207;-91
2021/05/04 01:23:39;;;;;;;4.17;3.00;;;7.70;45.90;;;;;;6103086;23;20152;-90
2021/05/04 01:26:04;;;;;;;3.23;3.03;;;7.10;44.40;;;;;;6103511;23;20577;-91
2021/05/04 01:28:30;;;;;;;2.77;2.57;;;7.50;45.90;;;;;;6102041;23;20155;-90
2021/05/04 01:30:57;;;;;;;6.40;3.10;;;7.40;45.90;;;;;;6102009;23;20642;-91
2021/05/04 01:33:23;;;;;;;3.55;3.03;;;7.60;45.90;;;;;;6102390;23;20443;-91
2021/05/04 01:35:49;;;;;;;2.38;2.17;;;7.40;45.50;;;;;;6102178;23;20152;-91
2021/05/04 01:38:15;;;;;;;3.20;3.00;;;7.40;45.60;;;;;;6102622;23;20639;-91
2021/05/04 01:40:41;;;;;;;3.53;2.92;;;7.60;46.00;;;;;;6102582;23;20149;-91
2021/05/04 01:43:08;;;;;;;3.17;2.92;;;7.40;45.40;;;;;;6102665;23;20144;-91
2021/05/04 01:45:33;;;;;;;2.67;2.47;;;7.50;45.20;;;;;;6103611;23;20207;-91
2021/05/04 01:48:00;;;;;;;4.13;3.73;;;7.60;45.10;;;;;;6104285;23;20207;-91
2021/05/04 01:50:26;;;;;;;4.45;3.13;;;7.50;45.40;;;;;;6105134;23;20153;-91
2021/05/04 01:52:51;;;;;;;2.60;2.40;;;7.50;44.90;;;;;;6104441;23;20581;-90
2021/05/04 01:55:17;;;;;;;2.90;2.70;;;7.50;45.00;;;;;;6104870;23;20191;-91
2021/05/04 01:57:43;;;;;;;3.03;2.83;;;7.50;44.90;;;;;;6104700;23;20207;-91
2021/05/04 02:00:10;;;;;;;4.40;3.50;;;7.10;44.50;;;;;;6104192;23;20168;-90
2021/05/04 02:02:36;;;;;;;2.80;2.60;;;7.50;44.90;;;;;;6105538;23;20140;-91
2021/05/04 02:05:03;;;;;;;2.90;2.60;;;7.50;44.50;;;;;;6104928;23;20183;-91
2021/05/04 02:07:29;;;;;;;2.95;2.70;;;7.50;44.50;;;;;;6104960;23;20141;-91
2021/05/04 02:09:56;;;;;;;3.50;2.93;;;7.50;44.70;;;;;;6105696;23;20151;-90
2021/05/04 02:12:24;;;;;;;9.90;2.40;;;7.40;44.60;;;;;;6105700;23;20435;-90
2021/05/04 02:14:54;;;;;;;3.35;2.70;;;7.30;44.70;;;;;;6103797;23;20153;-91
2021/05/04 02:17:20;;;;;;;3.17;2.88;;;7.60;45.00;;;;;;6104588;23;20183;-90
2021/05/04 02:19:45;;;;;;;3.57;2.90;;;7.20;44.80;;;;;;6104556;23;20499;-91
2021/05/04 02:22:11;;;;;;;3.57;3.10;;;7.20;44.80;;;;;;6103826;23;20427;-90
2021/05/04 02:24:37;;;;;;;3.00;2.80;;;7.30;44.80;;;;;;6104744;23;20231;-91
2021/05/04 02:27:03;;;;;;;3.00;2.80;;;6.90;44.40;;;;;;6104511;23;20911;-91
2021/05/04 02:29:29;;;;;;;3.63;3.35;;;7.30;45.00;;;;;;6104501;23;20470;-90
2021/05/04 02:31:54;;;;;;;3.43;3.13;;;6.80;44.40;;;;;;6129612;23;20148;-90
2021/05/04 02:34:26;;;;;;;3.03;2.83;;;6.30;45.60;;;;;;6104599;23;20192;-91
2021/05/04 02:36:51;;;;;;;2.92;2.42;;;6.30;46.10;;;;;;6104783;23;20599;-93
2021/05/04 02:39:17;;;;;;;3.50;3.20;;;6.80;46.30;;;;;;6103957;23;20192;-92
2021/05/04 02:41:43;;;;;;;3.40;3.10;;;6.70;46.50;;;;;;6104341;23;20144;-89
2021/05/04 02:44:08;;;;;;;5.47;4.87;;;6.80;46.30;;;;;;6103851;23;20152;-92
2021/05/04 02:46:36;;;;;;;3.60;3.30;;;6.90;46.60;;;;;;6104061;23;20376;-92
2021/05/04 02:49:02;;;;;;;5.38;3.72;;;6.80;46.50;;;;;;6104418;23;20152;-92
2021/05/04 02:51:28;;;;;;;4.07;3.67;;;6.90;46.70;;;;;;6103557;23;20208;-92
2021/05/04 02:53:55;;;;;;;3.80;3.10;;;6.90;46.20;;;;;;6103561;23;20156;-94
2021/05/04 02:56:27;;;;;;;2.97;2.70;;;7.20;46.30;;;;;;6105102;23;20464;-92
2021/05/04 02:58:52;;;;;;;3.67;3.38;;;7.50;46.90;;;;;;6103516;23;20179;-92
2021/05/04 03:01:18;;;;;;;3.13;2.73;;;6.90;46.10;;;;;;6103961;23;20149;-93
2021/05/04 03:03:45;;;;;;;3.47;3.27;;;7.10;45.90;;;;;;6103275;23;20153;-92
2021/05/04 03:06:11;;;;;;;3.28;2.97;;;7.10;46.10;;;;;;6103970;23;20384;-92
2021/05/04 03:08:38;;;;;;;3.87;3.47;;;6.90;45.50;;;;;;6103864;23;20631;-92
2021/05/04 03:11:04;;;;;;;4.55;3.40;;;7.40;45.80;;;;;;6104001;23;20157;-92
2021/05/04 03:13:31;;;;;;;6.30;4.13;;;7.00;45.50;;;;;;6103261;23;20183;-91
2021/05/04 03:15:58;;;;;;;3.72;3.30;;;6.70;46.50;;;;;;6103482;23;20159;-93
2021/05/04 03:18:24;;;;;;;3.90;3.58;;;7.40;47.00;;;;;;6103585;23;20257;-91
2021/05/04 03:20:52;;;;;;;4.72;3.80;;;7.20;47.30;;;;;;6103225;23;20145;-92
2021/05/04 03:23:19;;;;;;;3.20;2.75;;;7.40;47.50;;;;;;6103783;23;20239;-92
2021/05/04 03:25:46;;;;;;;3.85;3.42;;;7.40;46.80;;;;;;6103441;23;20144;-92
2021/05/04 03:28:12;;;;;;;3.65;3.20;;;7.30;47.80;;;;;;6103803;23;20631;-92
2021/05/04 03:30:38;;;;;;;5.22;3.28;;;7.30;47.90;;;;;;6103478;23;20148;-92
2021/05/04 03:33:05;;;;;;;3.80;3.50;;;7.30;47.30;;;;;;6103788;23;20215;-92
2021/05/04 03:35:31;;;;;;;5.18;3.70;;;7.50;47.80;;;;;;6103051;23;20519;-92
2021/05/04 03:37:57;;;;;;;3.90;3.60;;;7.30;47.50;;;;;;6103830;23;20144;-92
2021/05/04 03:40:23;;;;;;;4.10;3.17;;;7.00;47.40;;;;;;6103685;23;20732;-92
2021/05/04 03:42:48;;;;;;;3.23;2.93;;;7.60;47.60;;;;;;6103571;23;20160;-92
2021/05/04 03:45:14;;;;;;;6.07;3.70;;;7.10;46.90;;;;;;6103544;23;20569;-92
2021/05/04 03:47:48;;;;;;;6.20;3.63;;;7.50;47.20;;;;;;6103657;23;20144;-92
2021/05/04 03:50:21;;;;;;;3.35;3.05;;;7.30;46.40;;;;;;6103810;23;20188;-93
2021/05/04 03:52:49;;;;;;;3.63;3.33;;;7.60;46.00;;;;;;6104602;23;20152;-92
2021/05/04 03:55:15;;;;;;;4.15;3.85;;;7.00;45.50;;;;;;6103720;23;20152;-92
2021/05/04 03:58:03;;;;;;;2.67;2.47;;;7.50;45.80;;;;;;6104322;23;20151;-94
2021/05/04 04:00:29;;;;;;;4.15;2.97;;;7.50;46.50;;;;;;6106874;23;20567;-94
2021/05/04 04:02:56;;;;;;;3.00;2.80;;;8.00;46.80;;;;;;6107100;23;20132;-94
2021/05/04 04:05:23;;;;;;;3.05;2.83;;;7.40;46.30;;;;;;6106742;23;20603;-94
2021/05/04 04:07:50;;;;;;;3.60;3.30;;;7.50;46.70;;;;;;6105127;23;20175;-93
2021/05/04 04:10:15;;;;;;;3.47;3.10;;;7.50;46.40;;;;;;6104409;23;20129;-93
2021/05/04 04:12:42;;;;;;;3.10;2.80;;;8.10;46.60;;;;;;6104148;23;20144;-92
2021/05/04 04:15:09;;;;;;;4.00;3.13;;;8.10;46.80;;;;;;6105280;23;20176;-94
2021/05/04 04:17:42;;;;;;;3.63;3.30;;;7.60;46.40;;;;;;6105100;23;20155;-93
2021/05/04 04:20:09;;;;;;;3.20;3.00;;;7.60;46.20;;;;;;6106242;23;20184;-93
2021/05/04 04:22:35;;;;;;;3.97;3.13;;;7.60;46.20;;;;;;6104915;23;20284;-94
2021/05/04 04:25:08;;;;;;;4.18;3.67;;;7.70;46.20;;;;;;6104517;23;20239;-94
2021/05/04 04:27:34;;;;;;;3.35;3.05;;;7.90;46.00;;;;;;6104045;23;20364;-93
2021/05/04 04:30:00;;;;;;;3.23;3.03;;;7.80;46.20;;;;;;6104435;23;20157;-93
2021/05/04 04:32:26;;;;;;;4.13;3.13;;;7.80;46.00;;;;;;6103995;23;20390;-93
2021/05/04 04:34:54;;;;;;;5.63;3.23;;;8.00;46.10;;;;;;6103899;23;20243;-92
2021/05/04 04:37:21;;;;;;;3.97;3.67;;;8.20;46.40;;;;;;6103850;23;20707;-93
2021/05/04 04:39:49;;;;;;;3.60;3.30;;;7.80;46.40;;;;;;6104219;23;20207;-93
2021/05/04 04:42:15;;;;;;;3.72;3.42;;;8.10;46.00;;;;;;6104769;23;20144;-93
2021/05/04 04:44:40;;;;;;;3.47;3.17;;;7.90;46.00;;;;;;6104203;23;20151;-94
2021/05/04 04:47:07;;;;;;;3.70;3.37;;;7.90;46.10;;;;;;6103943;23;20141;-92
2021/05/04 04:49:41;;;;;;;3.10;2.85;;;7.90;46.30;;;;;;6104357;23;20148;-94
2021/05/04 04:52:07;;;;;;;3.15;2.95;;;7.90;46.10;;;;;;6105414;23;20160;-94
2021/05/04 04:54:33;;;;;;;3.63;3.33;;;8.10;46.60;;;;;;6104916;23;20159;-94
2021/05/04 04:57:21;;;;;;;3.63;3.13;;;8.50;46.80;;;;;;6104626;23;20156;-93
2021/05/04 04:59:49;;;;;;;4.60;4.20;;;8.10;46.50;;;;;;6104506;23;20187;-94
2021/05/04 05:02:18;;;;;;;5.05;4.20;;;8.20;46.60;;;;;;6103652;23;20838;-88
2021/05/04 05:04:45;;;;;;;4.53;4.15;;;8.20;46.60;;;;;;6104296;23;20151;-91
2021/05/04 05:08:01;;;;;;;4.22;3.92;;;7.60;45.40;;;;;;6105610;23;20172;-90
2021/05/04 05:10:29;;;;;;;4.25;3.95;;;8.20;46.20;;;;;;6102717;23;20262;-89
2021/05/04 05:12:55;;;;;;;3.65;3.35;;;8.70;46.10;;;;;;6102182;23;20152;-90
2021/05/04 05:15:21;;;;;;;5.40;3.35;;;8.60;46.20;;;;;;6101023;23;20588;-89
2021/05/04 05:17:50;;;;;;;4.83;4.30;;;8.40;45.90;;;;;;6101707;23;20219;-88
2021/05/04 05:20:15;;;;;;;3.95;3.65;;;8.30;46.00;;;;;;6101161;23;20260;-86
2021/05/04 05:22:44;;;;;;;3.57;3.27;;;8.50;45.80;;;;;;6102521;23;20192;-89
2021/05/04 05:25:10;;;;;;;3.60;3.25;;;8.50;45.40;;;;;;6102182;23;20611;-89
2021/05/04 05:27:38;;;;;;;4.13;3.75;;;8.50;45.70;;;;;;6110913;23;20189;-93
2021/05/04 05:45:49;;;;;;;7.10;6.40;;;8.90;46.30;;;;;;6114793;23;20204;-92
2021/05/04 05:48:15;;;;;;;7.10;5.40;;;9.10;46.40;;;;;;6077456;23;20153;-93
2021/05/04 05:50:42;;;;;;;5.45;4.80;;;9.30;46.20;;;;;;6078048;23;20157;-93
2021/05/04 05:53:08;;;;;;;8.00;5.00;;;9.10;45.40;;;;;;6077896;23;20581;-94
2021/05/04 05:55:33;;;;;;;5.30;4.10;;;9.40;45.90;;;;;;6078982;23;20160;-91
2021/05/04 05:58:00;;;;;;;8.27;4.30;;;9.60;45.60;;;;;;6074475;23;20153;-90
2021/05/04 06:00:28;;;;;;;4.45;4.13;;;9.40;45.20;;;;;;6075569;23;20552;-91
2021/05/04 06:02:53;;;;;;;4.63;3.42;;;9.50;44.60;;;;;;6074116;23;20160;-89
2021/05/04 06:05:54;;;;;;;3.13;2.83;;;9.50;43.70;;;;;;6074786;23;20157;-90
2021/05/04 06:08:19;;;;;;;3.50;3.20;;;9.80;42.50;;;;;;6075877;23;20160;-90
2021/05/04 06:10:46;;;;;;;3.33;2.80;;;10.10;41.20;;;;;;6077340;23;20153;-88
2021/05/04 06:13:12;;;;;;;3.28;2.97;;;10.30;39.30;;;;;;6076089;23;20605;-89
2021/05/04 06:15:43;;;;;;;2.77;2.50;;;10.80;39.00;;;;;;6075029;23;20153;-91
2021/05/04 06:18:10;;;;;;;2.65;2.33;;;11.20;37.30;;;;;;6074805;23;20160;-91
2021/05/04 06:20:36;;;;;;;5.93;2.50;;;11.20;37.00;;;;;;6076805;23;20754;-94
2021/05/04 06:23:02;;;;;;;2.53;2.33;;;11.90;35.20;;;;;;6078132;23;20582;-90
2021/05/04 06:25:28;;;;;;;4.70;2.30;;;11.90;34.90;;;;;;6077568;23;20157;-89
2021/05/04 06:27:59;;;;;;;2.50;2.30;;;12.30;34.10;;;;;;6073386;23;20485;-87
2021/05/04 06:30:26;;;;;;;3.90;1.90;;;12.70;33.10;;;;;;6072042;23;20452;-86
2021/05/04 06:32:52;;;;;;;2.30;2.00;;;12.90;32.10;;;;;;6073057;23;20393;-87
2021/05/04 06:35:19;;;;;;;2.10;1.90;;;13.10;31.80;;;;;;6076075;23;20709;-88
2021/05/04 06:37:46;;;;;;;2.20;2.00;;;13.40;30.90;;;;;;6075182;23;20235;-87
2021/05/04 06:40:13;;;;;;;3.60;3.23;;;13.70;29.80;;;;;;6076136;23;20892;-88
2021/05/04 06:42:39;;;;;;;2.57;2.07;;;13.80;30.10;;;;;;6075654;23;20386;-88
2021/05/04 06:45:05;;;;;;;2.10;1.90;;;13.80;29.70;;;;;;6084607;23;20427;-88
2021/05/04 06:47:31;;;;;;;2.93;2.07;;;14.10;29.60;;;;;;6106440;23;20161;-88
2021/05/04 06:49:57;;;;;;;2.30;2.00;;;14.50;29.40;;;;;;6104022;23;20384;-88
2021/05/04 06:52:23;;;;;;;2.70;2.50;;;14.70;28.60;;;;;;6102839;23;20384;-88
2021/05/04 06:54:48;;;;;;;4.50;2.07;;;15.00;27.80;;;;;;6105055;23;20164;-88
2021/05/04 06:57:18;;;;;;;4.23;2.33;;;15.30;27.60;;;;;;6110995;23;20412;-89
2021/05/04 06:59:45;;;;;;;3.30;2.33;;;15.80;27.20;;;;;;6105643;23;20414;-91
2021/05/04 07:02:48;;;;;;;2.37;2.13;;;16.00;26.40;;;;;;6120344;23;20152;-94
2021/05/04 07:05:14;;;;;;;2.17;2.03;;;16.00;25.80;;;;;;6109178;23;20167;-90
2021/05/04 07:07:41;;;;;;;1.80;1.70;;;16.50;25.10;;;;;;6108535;23;20379;-89
2021/05/04 07:10:07;;;;;;;3.97;2.00;;;16.60;25.60;;;;;;6108399;23;20432;-92
2021/05/04 07:12:34;;;;;;;2.03;1.93;;;16.60;24.90;;;;;;6106949;23;20384;-92
2021/05/04 07:15:00;;;;;;;2.43;2.23;;;16.80;24.40;;;;;;6111276;23;20384;-90
2021/05/04 07:17:36;;;;;;;2.10;1.90;;;16.70;24.50;;;;;;6109073;23;20471;-92
2021/05/04 07:20:03;;;;;;;2.03;1.93;;;16.50;24.40;;;;;;6109777;23;20455;-90
2021/05/04 07:22:31;;;;;;;2.20;2.10;;;16.50;24.80;;;;;;6108688;23;20471;-91
2021/05/04 07:24:57;;;;;;;3.10;1.70;;;16.60;24.90;;;;;;6109320;23;20395;-93
2021/05/04 07:27:35;;;;;;;4.23;2.00;;;16.70;25.20;;;;;;6106852;23;20372;-90
2021/05/04 07:30:00;;;;;;;2.10;1.87;;;16.80;24.20;;;;;;6109728;23;20380;-93
2021/05/04 07:32:27;;;;;;;2.67;1.73;;;16.80;24.10;;;;;;6108345;23;20795;-90
2021/05/04 07:34:53;;;;;;;4.40;2.43;;;16.90;24.20;;;;;;6106264;23;20164;-88
2021/05/04 07:37:19;;;;;;;3.13;1.83;;;16.80;24.40;;;;;;6103468;23;20391;-88
2021/05/04 07:39:45;;;;;;;3.23;2.00;;;17.00;24.10;;;;;;6102760;23;20428;-90
2021/05/04 07:42:12;;;;;;;2.40;2.20;;;17.10;24.10;;;;;;6102865;23;20152;-89
2021/05/04 07:44:39;;;;;;;1.83;1.60;;;17.20;23.80;;;;;;6102630;23;20384;-90
2021/05/04 07:47:05;;;;;;;1.73;1.63;;;17.40;24.00;;;;;;6104307;23;20707;-93
2021/05/04 07:49:47;;;;;;;1.80;1.70;;;17.50;23.50;;;;;;6107642;23;20844;-90
2021/05/04 07:52:13;;;;;;;4.20;2.13;;;17.90;23.40;;;;;;6106939;23;20444;-90
2021/05/04 07:54:40;;;;;;;3.60;1.73;;;18.10;23.60;;;;;;6106052;23;20408;-92
2021/05/04 07:57:06;;;;;;;2.80;2.03;;;18.00;23.30;;;;;;6109946;23;20376;-91
2021/05/04 07:59:32;;;;;;;5.70;2.37;;;18.40;23.50;;;;;;6108479;23;20431;-91
2021/05/04 08:01:59;;;;;;;1.90;1.80;;;18.50;22.90;;;;;;6109314;23;20372;-91
2021/05/04 08:04:26;;;;;;;3.73;1.60;;;18.20;23.70;;;;;;6108586;23;20159;-90
2021/05/04 08:06:51;;;;;;;2.30;1.90;;;18.30;23.30;;;;;;6108280;23;20376;-91
2021/05/04 08:09:18;;;;;;;2.80;2.07;;;18.40;23.20;;;;;;6108234;23;20388;-91
2021/05/04 08:11:44;;;;;;;3.70;1.60;;;18.30;22.80;;;;;;6110057;23;20171;-92
2021/05/04 08:14:59;;;;;;;4.17;1.87;;;18.70;23.10;;;;;;6111079;23;20412;-92
2021/05/04 08:17:27;;;;;;;2.93;1.97;;;18.50;21.60;;;;;;6110038;23;20144;-92
2021/05/04 08:19:52;;;;;;;1.97;1.80;;;18.30;22.40;;;;;;6109975;23;20427;-92
2021/05/04 08:22:18;;;;;;;2.40;1.57;;;18.30;22.50;;;;;;6133953;23;20356;-93
2021/05/04 08:24:51;;;;;;;1.63;1.50;;;18.20;22.70;;;;;;6110177;23;20716;-93
2021/05/04 08:27:16;;;;;;;2.30;1.70;;;18.60;22.90;;;;;;6106929;23;20571;-94
2021/05/04 08:29:42;;;;;;;4.80;1.73;;;18.60;22.40;;;;;;6108999;23;20384;-93
2021/05/04 08:32:08;;;;;;;4.17;1.57;;;18.50;21.60;;;;;;6084424;23;20157;-92
2021/05/04 08:34:34;;;;;;;1.70;1.60;;;18.80;22.50;;;;;;6106217;23;20414;-90
2021/05/04 08:37:01;;;;;;;9.50;1.77;;;18.30;22.50;;;;;;6116456;23;20152;-91
2021/05/04 08:42:54;;;;;;;7.03;2.13;;;17.80;22.80;;;;;;6144673;23;20819;-94
2021/05/04 08:45:21;;;;;;;5.00;2.10;;;17.60;23.40;;;;;;6123489;23;20487;-92
2021/05/04 08:48:03;;;;;;;2.30;2.10;;;17.40;23.40;;;;;;6114218;23;20435;-94
2021/05/04 08:50:34;;;;;;;4.07;1.90;;;17.30;23.50;;;;;;6109978;23;20384;-90
2021/05/04 08:53:00;;;;;;;3.70;1.43;;;17.50;23.30;;;;;;6111663;23;20388;-92
2021/05/04 08:55:38;;;;;;;2.10;1.40;;;17.70;23.70;;;;;;6109543;23;20683;-89
2021/05/04 08:58:03;;;;;;;1.90;1.80;;;17.80;23.20;;;;;;6107689;23;20166;-89
2021/05/04 09:00:30;;;;;;;4.70;1.90;;;17.70;23.10;;;;;;6105803;23;20459;-89
2021/05/04 09:03:15;;;;;;;1.83;1.73;;;17.70;23.70;;;;;;6104284;23;20606;-90
2021/05/04 09:05:45;;;;;;;2.47;2.07;;;17.80;24.50;;;;;;6105197;23;20381;-90
2021/05/04 09:15:04;;;;;;;1.87;1.77;;;17.80;23.20;;;;;;6131502;23;20355;-89
2021/05/04 09:17:34;;;;;;;2.13;1.80;;;17.50;23.20;;;;;;6105205;23;20395;-90
2021/05/04 09:23:08;;;;;;;5.40;2.47;;;18.00;24.50;;;;;;6129720;23;20364;-90
2021/05/04 09:25:36;;;;;;;2.80;2.00;;;18.20;23.80;;;;;;6102425;23;20355;-90
2021/05/04 09:28:31;;;;;;;3.80;2.40;;;18.10;23.30;;;;;;6102669;23;20474;-93
2021/05/04 09:30:57;;;;;;;2.33;2.00;;;18.30;23.50;;;;;;6103147;23;20854;-90
2021/05/04 09:33:36;;;;;;;1.80;1.70;;;18.20;23.50;;;;;;6103494;23;20417;-91
2021/05/04 09:36:02;;;;;;;1.93;1.80;;;18.10;23.50;;;;;;6103337;23;20372;-90
2021/05/04 09:38:43;;;;;;;2.13;1.93;;;18.60;24.50;;;;;;6102883;23;20383;-90
2021/05/04 09:41:32;;;;;;;3.57;2.27;;;18.50;23.30;;;;;;6103324;23;20430;-91
2021/05/04 09:43:57;;;;;;;3.20;1.90;;;18.40;23.50;;;;;;6105454;23;20376;-91
2021/05/04 09:46:49;;;;;;;3.55;2.05;;;18.40;23.60;;;;;;6102492;23;20499;-92
2021/05/04 09:49:37;;;;;;;2.23;2.00;;;18.30;23.20;;;;;;6102629;23;20485;-91
2021/05/04 09:55:19;;;;;;;2.20;2.00;;;18.40;23.50;;;;;;6113115;23;20849;-91
2021/05/04 09:57:52;;;;;;;3.10;2.70;;;18.00;23.20;;;;;;6101591;23;20381;-92
2021/05/04 10:00:37;;;;;;;3.27;1.83;;;18.10;23.50;;;;;;6072740;23;20432;-91
2021/05/04 10:03:04;;;;;;;3.10;2.00;;;18.50;23.30;;;;;;6100975;23;20392;-93
2021/05/04 10:05:31;;;;;;;2.13;1.87;;;18.60;23.70;;;;;;6099743;23;20149;-90
2021/05/04 10:07:57;;;;;;;2.20;2.00;;;18.70;23.50;;;;;;6101881;23;20396;-91
2021/05/04 10:10:24;;;;;;;2.27;2.00;;;18.70;23.70;;;;;;6078757;23;20424;-92
2021/05/04 10:12:51;;;;;;;3.50;2.30;;;18.80;23.10;;;;;;6103503;23;20377;-91
2021/05/04 10:15:17;;;;;;;1.67;1.57;;;19.10;24.00;;;;;;6103332;23;20388;-92
2021/05/04 10:17:43;;;;;;;1.87;1.77;;;18.80;23.00;;;;;;6104697;23;20384;-93
2021/05/04 10:20:15;;;;;;;2.20;2.00;;;18.50;23.50;;;;;;6104377;23;20757;-93
2021/05/04 10:22:41;;;;;;;1.83;1.73;;;18.50;23.40;;;;;;6104277;23;20377;-95
2021/05/04 10:25:13;;;;;;;6.70;2.13;;;18.80;23.80;;;;;;6101971;23;20377;-93
2021/05/04 10:27:39;;;;;;;3.33;2.40;;;19.00;23.60;;;;;;6101866;23;20851;-93
2021/05/04 10:30:22;;;;;;;2.67;2.13;;;19.00;23.90;;;;;;6102569;23;20385;-89
2021/05/04 10:32:51;;;;;;;2.83;1.80;;;19.50;22.50;;;;;;6102008;23;20377;-91
2021/05/04 10:35:37;;;;;;;1.93;1.73;;;19.30;22.00;;;;;;6102574;23;20381;-91
2021/05/04 10:38:15;;;;;;;2.13;2.03;;;18.80;22.00;;;;;;6101756;23;20444;-93
2021/05/04 10:40:46;;;;;;;2.57;2.10;;;18.70;22.30;;;;;;6101773;23;20725;-92
2021/05/04 10:43:21;;;;;;;4.60;2.20;;;19.30;22.40;;;;;;6101152;23;20409;-93
2021/05/04 10:45:48;;;;;;;2.17;1.80;;;18.90;22.60;;;;;;6105388;23;20458;-93
2021/05/04 10:48:52;;;;;;;2.60;2.23;;;19.00;22.60;;;;;;6105148;23;20384;-93
2021/05/04 10:51:19;;;;;;;4.50;2.03;;;19.30;22.50;;;;;;6106175;23;20387;-93
2021/05/04 10:54:17;;;;;;;4.87;2.30;;;19.20;22.70;;;;;;6105032;23;20391;-94
2021/05/04 10:57:24;;;;;;;3.33;2.17;;;19.20;21.90;;;;;;6106763;23;20389;-92
2021/05/04 10:59:51;;;;;;;2.30;2.10;;;18.50;21.90;;;;;;6104148;23;20506;-89
2021/05/04 11:02:20;;;;;;;3.10;1.50;;;19.00;22.10;;;;;;6107154;23;20438;-89
2021/05/04 11:05:05;;;;;;;4.43;2.03;;;18.70;21.60;;;;;;6104045;23;20393;-89
2021/05/04 11:08:01;;;;;;;3.03;2.07;;;18.30;22.30;;;;;;6103936;23;20422;-90
2021/05/04 11:11:04;;;;;;;2.60;1.90;;;18.20;22.30;;;;;;6103661;23;20388;-91
2021/05/04 11:13:50;;;;;;;5.53;2.13;;;18.40;22.60;;;;;;6103715;23;20387;-91
2021/05/04 11:16:44;;;;;;;5.50;2.03;;;18.50;22.90;;;;;;6103899;23;20402;-92
2021/05/04 11:19:17;;;;;;;4.20;1.90;;;18.20;22.00;;;;;;6104195;23;21131;-91
2021/05/04 11:22:10;;;;;;;2.07;1.93;;;18.00;22.40;;;;;;6108452;23;20419;-92
2021/05/04 11:24:37;;;;;;;2.50;2.30;;;18.10;23.00;;;;;;6109360;23;20412;-91
2021/05/04 11:27:06;;;;;;;3.03;2.40;;;18.50;22.50;;;;;;6107142;23;20384;-91
2021/05/04 11:29:32;;;;;;;2.80;1.90;;;18.30;21.90;;;;;;6108226;23;20840;-91
2021/05/04 11:32:27;;;;;;;2.83;1.90;;;18.40;22.20;;;;;;6108954;23;20467;-91
2021/05/04 11:34:57;;;;;;;3.93;1.60;;;18.10;22.10;;;;;;6057146;23;20171;-92
2021/05/04 11:37:45;;;;;;;2.67;2.20;;;18.40;22.40;;;;;;6107867;23;20388;-91
2021/05/04 11:40:24;;;;;;;1.70;1.60;;;18.50;22.50;;;;;;6108351;23;20487;-91
2021/05/04 11:43:06;;;;;;;1.80;1.70;;;18.60;22.40;;;;;;6108000;23;20381;-92
2021/05/04 11:45:33;;;;;;;2.50;1.73;;;18.90;23.30;;;;;;6103870;23;20444;-89
2021/05/04 11:48:04;;;;;;;3.00;1.80;;;18.90;22.40;;;;;;6103353;23;20385;-92
2021/05/04 11:50:43;;;;;;;2.70;2.30;;;18.80;22.50;;;;;;6104960;23;20400;-90
2021/05/04 11:53:11;;;;;;;3.80;2.07;;;18.60;22.80;;;;;;6104042;23;20380;-91
2021/05/04 11:55:55;;;;;;;3.00;2.10;;;18.40;23.30;;;;;;6104391;23;20385;-92
2021/05/04 11:58:26;;;;;;;1.97;1.87;;;18.30;23.40;;;;;;6109396;23;20388;-90
2021/05/04 12:01:11;;;;;;;3.00;2.30;;;18.50;24.20;;;;;;6106490;23;20710;-92
2021/05/04 12:03:37;;;;;;;2.97;2.10;;;18.30;24.20;;;;;;6105325;23;20380;-92
2021/05/04 12:06:09;;;;;;;2.93;1.97;;;18.20;24.40;;;;;;6105172;23;20833;-91
2021/05/04 12:08:35;;;;;;;4.00;2.20;;;18.50;24.60;;;;;;6103293;23;20478;-92
2021/05/04 12:11:03;;;;;;;6.57;1.97;;;18.10;24.70;;;;;;6102326;23;20374;-93
2021/05/04 12:13:28;;;;;;;2.53;2.33;;;17.70;23.60;;;;;;6103453;23;20176;-93
2021/05/04 12:15:57;;;;;;;8.73;2.07;;;17.90;23.70;;;;;;6103856;23;20381;-91
2021/05/04 12:18:25;;;;;;;3.07;1.80;;;17.70;23.90;;;;;;6104445;23;20146;-90
2021/05/04 12:20:56;;;;;;;5.87;3.00;;;18.00;23.60;;;;;;6103940;23;20760;-93
2021/05/04 12:24:06;;;;;;;2.13;1.73;;;18.00;24.10;;;;;;6103446;23;20381;-93
2021/05/04 12:26:33;;;;;;;3.27;1.97;;;18.00;24.00;;;;;;6101291;23;20393;-93
2021/05/04 12:29:07;;;;;;;2.10;1.70;;;18.00;24.30;;;;;;6102893;23;20389;-92
2021/05/04 12:31:35;;;;;;;5.03;2.00;;;17.90;24.30;;;;;;6102873;23;20389;-92
2021/05/04 12:34:05;;;;;;;3.40;2.10;;;18.10;24.40;;;;;;6102990;23;20460;-93
2021/05/04 12:36:42;;;;;;;2.10;1.73;;;18.60;24.70;;;;;;6102789;23;20381;-92
2021/05/04 12:39:19;;;;;;;2.10;1.90;;;18.40;23.30;;;;;;6097265;23;20958;-93
2021/05/04 12:41:49;;;;;;;2.40;2.17;;;18.50;23.20;;;;;;6094957;23;20384;-91
2021/05/04 12:44:32;;;;;;;1.97;1.70;;;18.50;23.60;;;;;;6097846;23;20401;-95
2021/05/04 12:47:09;;;;;;;3.70;2.03;;;18.40;23.90;;;;;;6072608;23;20396;-94
2021/05/04 12:49:37;;;;;;;2.27;2.00;;;18.40;23.50;;;;;;6073032;23;20408;-91
2021/05/04 12:52:12;;;;;;;1.90;1.70;;;18.40;24.00;;;;;;6098208;23;20455;-92
2021/05/04 12:54:40;;;;;;;4.80;2.00;;;17.80;23.20;;;;;;6073051;23;20762;-92
2021/05/04 12:57:21;;;;;;;5.07;1.83;;;18.00;24.40;;;;;;6072998;23;20428;-93
2021/05/04 12:59:47;;;;;;;2.47;1.73;;;18.20;24.20;;;;;;6074791;23;20432;-92
2021/05/04 13:02:25;;;;;;;2.33;2.00;;;18.50;24.40;;;;;;6076371;23;20377;-93
2021/05/04 13:10:55;;;;;;;5.20;1.80;;;18.60;23.20;;;;;;6098937;23;20360;-90
2021/05/04 13:30:27;;;;;;;3.40;2.13;;;18.00;23.50;;;;;;6098473;23;20690;-91
2021/05/04 13:32:57;;;;;;;1.80;1.50;;;18.00;23.40;;;;;;6073094;23;20387;-91
2021/05/04 13:35:27;;;;;;;3.87;2.30;;;18.00;24.10;;;;;;6075710;23;20400;-90
2021/05/04 13:48:38;;;;;;;4.40;2.33;;;18.50;24.60;;;;;;6131071;23;20415;-89
2021/05/04 13:51:05;;;;;;;2.20;1.90;;;18.30;24.10;;;;;;6104898;23;20383;-90
2021/05/04 13:53:31;;;;;;;4.97;2.03;;;18.50;23.60;;;;;;6104518;23;20157;-90
2021/05/04 13:55:57;;;;;;;3.20;2.00;;;18.20;23.90;;;;;;6105560;23;20867;-89
2021/05/04 13:58:27;;;;;;;2.90;1.87;;;18.10;24.30;;;;;;6104613;23;20395;-89
2021/05/04 14:01:15;;;;;;;1.90;1.80;;;17.80;24.20;;;;;;6106421;23;20433;-90
2021/05/04 14:27:27;;;;;;;1.60;1.50;;;17.60;27.50;;;;;;6139230;23;20368;-88
2021/05/04 14:29:53;;;;;;;3.60;2.33;;;17.70;27.90;;;;;;6103650;23;20167;-89
2021/05/04 14:32:19;;;;;;;1.67;1.57;;;17.00;27.40;;;;;;6100646;23;20396;-90
2021/05/04 14:34:56;;;;;;;1.80;1.60;;;16.80;28.20;;;;;;6101957;23;20156;-91